Time;durP1;ratioP1;P1;durP2;ratioP2;P2;SDS_P1;SDS_P2;PMS_P1;PMS_P2;Temp;Humidity;BMP_temperature;BMP_pressure;BME280_temperature;BME280_humidity;BME280_pressure;Samples;Min_cycle;Max_cycle;Signal;HPM_P1;HPM_P2
2023/05/22 00:00:00;;;;;;;35.47;15.52;;;16.40;99.90;;;16.86;90.57;101495.84;4924998;29;20052;-66
2023/05/22 00:02:28;;;;;;;31.88;15.18;;;16.40;99.90;;;16.97;90.01;101496.50;4939951;29;20055;-66
2023/05/22 00:04:59;;;;;;;34.25;15.88;;;16.50;99.90;;;17.02;89.46;101498.16;4924254;29;20048;-66
2023/05/22 00:07:28;;;;;;;34.97;15.35;;;16.60;99.90;;;17.06;89.09;101496.28;4926344;29;20255;-66
2023/05/22 00:09:56;;;;;;;32.35;15.32;;;16.70;99.90;;;17.08;89.08;101497.13;4923493;29;20072;-66
2023/05/22 00:12:24;;;;;;;34.75;15.23;;;16.70;99.90;;;17.18;88.68;101509.41;4923802;29;20055;-66
2023/05/22 00:14:53;;;;;;;30.45;15.23;;;16.70;99.90;;;17.19;88.54;101507.63;4926894;29;20051;-66
2023/05/22 00:17:21;;;;;;;30.63;15.30;;;16.70;99.90;;;17.26;87.74;101496.75;4924582;29;20413;-66
2023/05/22 00:19:50;;;;;;;32.53;14.70;;;16.80;99.90;;;17.07;88.00;101493.56;4925954;29;20655;-66
2023/05/22 00:22:20;;;;;;;39.83;16.23;;;16.70;99.90;;;17.09;88.47;101502.44;4925249;29;20040;-66
2023/05/22 00:24:48;;;;;;;29.58;15.05;;;16.60;99.90;;;17.19;88.30;101497.78;4925259;29;20050;-66
2023/05/22 00:27:17;;;;;;;35.00;14.73;;;16.80;99.90;;;17.09;88.61;101480.19;4925985;29;20485;-67
2023/05/22 00:29:46;;;;;;;29.35;14.27;;;16.70;99.90;;;16.89;89.24;101480.59;4925138;29;20052;-66
2023/05/22 00:32:14;;;;;;;35.65;15.75;;;16.50;99.90;;;16.79;90.20;101481.69;4930435;29;20040;-66
2023/05/22 00:34:42;;;;;;;29.65;14.30;;;16.40;99.90;;;16.73;90.79;101473.81;4927356;29;20573;-66
2023/05/22 00:37:11;;;;;;;30.85;14.95;;;16.30;99.90;;;16.82;90.47;101470.94;4929667;29;20173;-66
2023/05/22 00:39:40;;;;;;;33.50;15.30;;;16.30;99.90;;;16.66;91.22;101469.50;4930274;29;20535;-66
2023/05/22 00:42:09;;;;;;;35.03;15.43;;;16.20;99.90;;;16.65;91.34;101478.41;4928238;29;20131;-66
2023/05/22 00:44:37;;;;;;;32.55;14.70;;;16.10;99.90;;;16.76;91.05;101475.53;4929230;29;20050;-66
2023/05/22 00:47:06;;;;;;;34.60;15.32;;;16.30;99.90;;;16.89;90.60;101485.06;4928608;29;20509;-66
2023/05/22 00:49:35;;;;;;;32.65;15.10;;;16.40;99.90;;;16.96;89.79;101490.25;4928420;29;20051;-66
2023/05/22 00:52:04;;;;;;;29.63;13.70;;;16.50;99.90;;;17.01;89.46;101487.50;4929651;29;20468;-66
2023/05/22 00:54:33;;;;;;;32.58;14.35;;;16.60;99.90;;;17.07;89.19;101501.59;4942168;29;20135;-66
2023/05/22 00:57:03;;;;;;;33.17;15.07;;;16.60;99.90;;;17.08;88.63;101498.03;4941408;29;20084;-66
2023/05/22 00:59:33;;;;;;;28.55;14.55;;;16.70;99.90;;;17.08;88.33;101499.81;4941718;29;20052;-66
2023/05/22 01:02:01;;;;;;;29.50;14.95;;;16.60;99.90;;;17.09;88.46;101502.44;4929696;29;20063;-66
2023/05/22 01:04:31;;;;;;;29.02;14.32;;;16.70;99.90;;;17.17;87.94;101503.16;4942608;29;20059;-66
2023/05/22 01:07:01;;;;;;;28.02;14.70;;;16.70;99.90;;;17.09;87.69;101502.44;4928590;29;20040;-67
2023/05/22 01:09:30;;;;;;;31.35;15.20;;;16.70;99.90;;;17.11;88.04;101497.94;4928838;29;20055;-66
2023/05/22 01:12:10;;;;;;;29.02;14.40;;;16.70;99.90;;;17.06;88.47;101490.94;4927401;29;20052;-66
2023/05/22 01:14:48;;;;;;;31.00;14.85;;;16.60;99.90;;;17.04;88.90;101482.97;4927155;29;20493;-66
2023/05/22 01:17:24;;;;;;;34.85;15.27;;;16.60;99.90;;;16.92;89.43;101480.53;4927837;29;20055;-66
2023/05/22 01:20:08;;;;;;;34.45;14.50;;;16.40;99.90;;;16.89;89.89;101472.59;4941016;29;20060;-66
2023/05/22 01:23:28;;;;;;;33.03;14.90;;;16.40;99.90;;;16.86;90.41;101467.28;4928882;29;20052;-66
2023/05/22 01:26:38;;;;;;;34.97;16.30;;;16.30;99.90;;;16.71;90.81;101464.06;4928200;29;20076;-66
2023/05/22 01:29:31;;;;;;;33.42;16.27;;;16.20;99.90;;;16.57;91.82;101456.31;4940996;29;20110;-66
2023/05/22 01:32:02;;;;;;;31.58;16.27;;;16.10;99.90;;;16.58;92.26;101447.41;4940658;29;20163;-66
2023/05/22 01:34:31;;;;;;;34.58;15.73;;;16.10;99.90;;;16.46;92.77;101444.94;4926511;29;20059;-66
2023/05/22 01:37:02;;;;;;;35.80;17.75;;;16.00;99.90;;;16.45;93.25;101444.97;4928658;29;20051;-66
2023/05/22 01:39:31;;;;;;;39.90;18.30;;;15.90;99.90;;;16.46;94.09;101444.94;4927436;29;20052;-66
2023/05/22 01:42:01;;;;;;;40.20;18.00;;;15.90;99.90;;;16.30;94.18;101458.59;4942130;29;20146;-66
2023/05/22 01:44:29;;;;;;;37.42;18.77;;;15.80;99.90;;;16.27;94.20;101440.84;4928603;29;20151;-67
2023/05/22 01:46:59;;;;;;;38.35;18.70;;;15.80;99.90;;;16.04;95.06;101435.94;4926725;29;20040;-66
2023/05/22 01:49:29;;;;;;;41.90;18.75;;;15.70;99.90;;;16.07;96.47;101429.63;4929107;29;20070;-66
2023/05/22 01:52:08;;;;;;;42.15;18.33;;;15.70;99.90;;;16.10;96.58;101433.13;4926185;29;20048;-66
2023/05/22 01:54:42;;;;;;;40.67;18.08;;;15.60;99.90;;;16.09;96.62;101427.81;4927718;29;20137;-66
2023/05/22 01:57:16;;;;;;;42.35;19.52;;;15.60;99.90;;;15.42;96.17;101325.88;4924492;29;20052;-66
2023/05/22 01:59:49;;;;;;;39.95;19.45;;;15.60;99.90;;;16.28;95.86;101424.78;4924680;29;20501;-66
2023/05/22 02:02:20;;;;;;;39.30;18.85;;;15.80;99.90;;;16.40;94.74;101423.69;4942820;29;20118;-66
2023/05/22 02:05:03;;;;;;;40.30;18.95;;;15.90;99.90;;;16.38;93.72;101409.47;4927511;29;20071;-66
2023/05/22 02:07:34;;;;;;;40.72;19.20;;;15.90;99.90;;;16.24;94.38;101416.84;4940570;29;20493;-66
2023/05/22 02:10:06;;;;;;;37.58;19.00;;;15.80;99.90;;;16.15;94.91;101414.38;4942575;29;20055;-66
2023/05/22 02:12:37;;;;;;;41.42;18.67;;;15.70;99.90;;;16.05;95.10;101407.44;4939303;29;20445;-66
2023/05/22 02:15:08;;;;;;;34.85;18.50;;;15.60;99.90;;;15.92;95.53;101403.22;4928120;29;20628;-66
2023/05/22 02:17:39;;;;;;;;;;;15.50;99.90;;;15.78;96.81;101397.25;4940883;29;20128;-66
2023/05/22 02:20:14;;;;;;;37.70;18.30;;;15.40;99.90;;;15.12;98.50;101352.09;4940299;29;19974;-66
2023/05/22 02:22:47;;;;;;;38.75;19.63;;;15.20;99.90;;;15.67;99.56;101402.78;4941758;29;20106;-66
2023/05/22 02:25:16;;;;;;;42.50;19.80;;;15.20;99.90;;;15.93;98.17;101405.00;4927780;29;20103;-66
2023/05/22 02:27:48;;;;;;;42.50;19.70;;;15.40;99.90;;;15.78;97.90;101394.59;4940389;28;20088;-66
2023/05/22 02:30:16;;;;;;;37.38;20.95;;;15.40;99.90;;;15.64;98.69;101392.16;4939813;29;20413;-66
2023/05/22 02:32:49;;;;;;;36.30;19.73;;;15.30;99.90;;;15.67;98.61;101391.22;4940215;29;20524;-66
2023/05/22 02:35:18;;;;;;;44.20;20.63;;;15.30;99.90;;;15.65;99.01;101388.59;4927512;29;20409;-66
2023/05/22 02:37:47;;;;;;;43.37;20.77;;;15.20;99.90;;;15.42;99.54;101380.09;4941335;29;20074;-66
2023/05/22 02:40:15;;;;;;;44.50;20.90;;;15.10;99.90;;;15.55;99.77;101386.97;4933078;29;20047;-66
2023/05/22 02:42:43;;;;;;;44.63;20.48;;;15.10;99.90;;;15.61;99.73;101392.22;4941743;29;20040;-66
2023/05/22 02:45:12;;;;;;;42.67;21.30;;;15.10;99.90;;;15.53;99.79;101380.78;4940514;29;20086;-66
2023/05/22 02:47:42;;;;;;;50.40;22.25;;;15.10;99.90;;;15.55;100.00;101383.41;4942335;29;20135;-66
2023/05/22 02:50:11;;;;;;;42.35;23.13;;;15.10;99.90;;;15.20;100.00;101374.19;4925147;29;20052;-66
2023/05/22 02:52:41;;;;;;;44.83;22.02;;;15.00;99.90;;;15.14;100.00;101378.69;4938852;29;20040;-66
2023/05/22 02:55:10;;;;;;;47.08;22.42;;;14.80;99.90;;;15.18;100.00;101375.09;4934137;29;20486;-66
2023/05/22 02:57:38;;;;;;;52.65;23.80;;;14.80;99.90;;;15.07;100.00;101372.59;4925837;29;20048;-66
2023/05/22 03:00:10;;;;;;;49.67;23.45;;;14.70;99.90;;;15.08;100.00;101381.44;4941388;29;20138;-66
2023/05/22 03:02:38;;;;;;;51.03;24.45;;;14.70;99.90;;;15.03;100.00;101380.66;4926734;29;20052;-66
2023/05/22 03:05:09;;;;;;;43.47;22.75;;;14.70;99.90;;;14.93;100.00;101382.56;4940066;29;20074;-66
2023/05/22 03:07:38;;;;;;;50.35;22.35;;;14.60;99.90;;;15.10;100.00;101388.53;4942340;29;20047;-66
2023/05/22 03:10:09;;;;;;;44.15;23.52;;;14.60;99.90;;;14.97;100.00;101392.28;4927585;29;20059;-66
2023/05/22 03:12:37;;;;;;;52.22;24.02;;;14.60;99.90;;;15.26;100.00;101410.50;4925003;29;20446;-66
2023/05/22 03:15:07;;;;;;;49.47;24.30;;;14.80;99.90;;;15.14;100.00;101395.59;4933527;29;20044;-66
2023/05/22 03:17:36;;;;;;;42.40;22.55;;;14.80;99.90;;;15.16;100.00;101383.13;4940465;29;20067;-66
2023/05/22 03:20:07;;;;;;;48.30;22.70;;;14.70;99.90;;;15.09;100.00;101381.44;4932701;29;20134;-66
2023/05/22 03:22:36;;;;;;;52.97;23.05;;;14.70;99.90;;;14.82;100.00;101349.00;4926922;29;20059;-66
2023/05/22 03:25:08;;;;;;;44.55;23.50;;;14.60;99.90;;;15.04;100.00;101383.28;4939540;28;20055;-66
2023/05/22 03:27:39;;;;;;;49.90;21.77;;;14.60;99.90;;;15.10;100.00;101380.53;4923945;29;20052;-66
2023/05/22 03:30:09;;;;;;;48.28;22.30;;;14.70;99.90;;;15.24;100.00;101369.66;4941843;28;20051;-66
2023/05/22 03:32:39;;;;;;;42.25;22.23;;;14.80;99.90;;;15.14;100.00;101373.38;4937522;29;20116;-66
2023/05/22 03:35:09;;;;;;;45.97;22.65;;;14.80;99.90;;;15.10;100.00;101374.31;4925869;29;20482;-66
2023/05/22 03:37:38;;;;;;;60.78;23.90;;;14.70;99.90;;;15.05;100.00;101377.06;4940144;29;20056;-66
2023/05/22 03:40:09;;;;;;;55.85;23.63;;;14.70;99.90;;;15.22;100.00;101375.03;4941330;29;20048;-66
2023/05/22 03:42:38;;;;;;;48.28;22.85;;;14.70;99.90;;;15.32;100.00;101367.78;4938961;29;20449;-66
2023/05/22 03:45:08;;;;;;;36.97;21.23;;;14.90;99.90;;;15.20;100.00;101363.50;4939253;29;20516;-66
2023/05/22 03:47:37;;;;;;;;;;;14.80;99.90;;;15.20;100.00;101368.84;4941959;29;20431;-66
2023/05/22 03:50:07;;;;;;;44.08;20.92;;;14.80;99.90;;;15.13;100.00;101375.19;4939788;29;19931;-66
2023/05/22 03:52:35;;;;;;;42.22;20.45;;;14.80;99.90;;;15.41;100.00;101374.75;4940612;29;20066;-66
2023/05/22 03:55:06;;;;;;;45.90;20.92;;;14.90;99.90;;;15.67;100.00;101380.56;4926214;29;20135;-66
2023/05/22 03:57:34;;;;;;;40.25;20.15;;;15.20;99.90;;;15.75;100.00;101370.63;4939632;29;20111;-66
2023/05/22 04:00:08;;;;;;;44.60;19.75;;;15.30;99.90;;;15.63;100.00;101374.41;4926954;29;20078;-66
2023/05/22 04:02:43;;;;;;;37.50;20.48;;;15.30;99.90;;;15.60;100.00;101389.56;4924993;29;20076;-66
2023/05/22 04:05:13;;;;;;;44.60;19.10;;;15.20;99.90;;;15.60;100.00;101389.56;4943983;29;20527;-66
2023/05/22 04:07:41;;;;;;;39.45;19.08;;;15.30;99.90;;;15.74;100.00;101383.09;4929698;29;20107;-66
2023/05/22 04:10:11;;;;;;;41.85;18.73;;;15.30;99.90;;;15.78;100.00;101386.56;4943570;29;20053;-66
2023/05/22 04:12:39;;;;;;;39.15;18.45;;;15.40;99.90;;;15.78;100.00;101383.91;4930496;29;20050;-66
2023/05/22 04:15:10;;;;;;;38.17;18.92;;;15.30;99.90;;;16.05;100.00;101394.09;4927872;29;20490;-66
2023/05/22 04:17:40;;;;;;;36.63;18.25;;;15.60;99.90;;;16.15;99.86;101391.25;4930072;29;20067;-66
2023/05/22 04:20:10;;;;;;;48.53;20.35;;;15.70;99.90;;;16.16;98.52;101384.13;4944935;29;20066;-66
2023/05/22 04:22:39;;;;;;;46.17;19.92;;;15.80;99.90;;;16.15;98.48;101393.00;4928803;29;20044;-66
2023/05/22 04:25:10;;;;;;;47.38;19.80;;;15.70;99.90;;;16.23;98.31;101404.44;4944160;29;20063;-66
2023/05/22 04:27:39;;;;;;;45.83;18.65;;;15.80;99.90;;;16.29;97.83;101407.00;4944155;29;20139;-66
2023/05/22 04:30:10;;;;;;;43.00;18.02;;;15.90;99.90;;;16.41;97.64;101411.22;4928018;29;20079;-66
2023/05/22 04:32:39;;;;;;;35.45;18.67;;;16.00;99.90;;;16.43;97.21;101396.94;4945657;29;20048;-66
2023/05/22 04:35:08;;;;;;;40.92;17.05;;;16.00;99.90;;;16.45;96.54;101402.25;4942060;29;20493;-66
2023/05/22 04:37:41;;;;;;;38.28;19.35;;;16.00;99.90;;;16.53;96.22;101403.84;4944701;29;20071;-66
2023/05/22 04:40:10;;;;;;;;;;;16.10;99.90;;;16.44;95.83;101403.13;4929120;29;20155;-66
2023/05/22 04:42:39;;;;;;;42.65;18.45;;;16.10;99.90;;;16.44;96.26;101400.47;4943212;29;19923;-66
2023/05/22 04:45:12;;;;;;;47.90;18.70;;;16.10;99.90;;;16.41;96.16;101406.75;4929445;29;20482;-66
2023/05/22 04:47:41;;;;;;;41.75;18.73;;;16.00;99.90;;;16.37;96.29;101407.72;4941955;29;20075;-66
2023/05/22 04:50:10;;;;;;;38.75;19.33;;;16.00;99.90;;;16.26;96.70;101404.34;4941549;29;20052;-66
2023/05/22 04:52:39;;;;;;;46.08;20.10;;;15.90;99.90;;;16.28;97.07;101402.53;4927267;29;20051;-66
2023/05/22 04:55:10;;;;;;;48.42;21.17;;;15.90;99.90;;;16.29;97.43;101398.97;4944225;29;20055;-66
2023/05/22 04:57:40;;;;;;;47.03;22.35;;;15.90;99.90;;;16.14;97.89;101401.94;4943227;29;20048;-66
2023/05/22 05:00:12;;;;;;;61.95;25.17;;;15.70;99.90;;;15.93;99.74;101400.53;4943184;29;20552;-66
2023/05/22 05:02:42;;;;;;;47.30;25.52;;;15.50;99.90;;;15.64;100.00;101359.28;4941294;29;20524;-66
2023/05/22 05:05:11;;;;;;;50.58;26.52;;;15.50;99.90;;;16.00;100.00;101404.88;4930160;29;20050;-66
2023/05/22 05:07:40;;;;;;;48.53;25.63;;;15.60;99.90;;;16.15;100.00;101415.25;4929945;29;20044;-66
2023/05/22 05:10:10;;;;;;;55.03;27.58;;;15.70;99.90;;;16.02;100.00;101404.84;4936113;29;20113;-66
2023/05/22 05:12:38;;;;;;;58.95;27.92;;;15.70;99.90;;;16.12;100.00;101412.63;4942200;29;20052;-66
2023/05/22 05:15:10;;;;;;;51.05;26.13;;;15.80;99.90;;;16.06;100.00;101402.09;4934603;29;20079;-66
2023/05/22 05:17:38;;;;;;;49.08;26.52;;;15.70;99.90;;;15.95;100.00;101408.53;4943275;29;20051;-66
2023/05/22 05:20:09;;;;;;;55.25;26.67;;;15.50;99.90;;;16.06;100.00;101410.09;4927296;29;20402;-66
2023/05/22 05:22:38;;;;;;;54.20;27.98;;;15.60;99.90;;;15.89;100.00;101403.31;4944382;29;20054;-66
2023/05/22 05:25:08;;;;;;;66.18;29.17;;;15.50;99.90;;;15.95;100.00;101419.22;4940869;29;20055;-66
2023/05/22 05:27:39;;;;;;;57.15;26.80;;;15.50;99.90;;;15.92;100.00;101395.22;4941522;29;20056;-66
2023/05/22 05:30:11;;;;;;;60.65;29.77;;;15.60;99.90;;;15.87;100.00;101403.31;4940668;28;20048;-66
2023/05/22 05:32:56;;;;;;;59.60;26.92;;;15.60;99.90;;;15.94;100.00;101407.66;4937957;29;20059;-66
2023/05/22 05:35:32;;;;;;;56.45;28.48;;;15.60;99.90;;;15.94;100.00;101414.75;4942902;29;20146;-66
2023/05/22 05:38:08;;;;;;;60.13;29.00;;;15.60;99.90;;;16.08;100.00;101418.97;4940692;29;20184;-66
2023/05/22 05:40:40;;;;;;;53.60;27.40;;;15.70;99.90;;;16.26;100.00;101418.59;4924834;29;20068;-66
2023/05/22 05:43:10;;;;;;;56.50;28.25;;;15.80;99.90;;;16.23;100.00;101410.66;4941047;29;20413;-66
2023/05/22 05:45:40;;;;;;;48.33;26.20;;;15.90;99.90;;;16.08;100.00;101418.97;4943301;29;20047;-66
2023/05/22 05:48:10;;;;;;;57.25;28.88;;;15.70;99.90;;;16.02;100.00;101420.84;4938927;29;20151;-66
2023/05/22 05:50:42;;;;;;;54.45;27.65;;;15.70;99.90;;;16.03;100.00;101418.16;4926532;29;20057;-66
2023/05/22 05:53:11;;;;;;;58.95;28.45;;;15.60;99.90;;;16.05;100.00;101423.44;4941114;29;20058;-66
2023/05/22 05:55:42;;;;;;;54.03;28.30;;;15.60;99.90;;;16.32;100.00;101430.94;4944008;29;20493;-66
2023/05/22 05:58:11;;;;;;;52.35;27.52;;;15.90;99.90;;;16.33;100.00;101421.16;4929445;29;20099;-66
2023/05/22 06:01:01;;;;;;;47.53;27.00;;;15.90;99.90;;;16.41;100.00;101429.91;4920447;29;20067;-66
2023/05/22 06:03:30;;;;;;;54.22;26.85;;;16.00;99.90;;;16.51;100.00;101436.88;4940266;29;20052;-66
2023/05/22 06:06:14;;;;;;;59.70;28.38;;;16.10;99.90;;;16.73;100.00;101444.41;4933351;29;20278;-66
2023/05/22 06:09:09;;;;;;;50.78;25.05;;;16.30;99.90;;;16.97;100.00;101451.94;4927853;29;20079;-66
2023/05/22 06:11:55;;;;;;;48.20;25.58;;;16.50;99.90;;;17.14;100.00;101455.13;4927244;29;20131;-66
2023/05/22 06:14:24;;;;;;;46.25;25.40;;;16.70;99.90;;;17.30;99.22;101457.44;4941751;29;20052;-66
2023/05/22 06:16:54;;;;;;;50.42;26.30;;;16.90;99.90;;;17.31;98.25;101456.53;4942327;29;20410;-66
2023/05/22 06:19:23;;;;;;;49.45;25.20;;;16.90;99.90;;;17.50;97.83;101450.75;4926553;29;20052;-66
2023/05/22 06:21:51;;;;;;;52.08;25.85;;;17.10;99.90;;;17.61;96.92;101453.19;4928249;29;20098;-66
2023/05/22 06:24:21;;;;;;;58.22;26.38;;;17.20;99.90;;;17.64;96.14;101454.00;4932142;29;20055;-66
2023/05/22 06:26:50;;;;;;;47.85;24.50;;;17.30;99.90;;;17.75;95.91;101470.66;4923402;29;20055;-66
2023/05/22 06:29:18;;;;;;;49.90;24.83;;;17.40;99.90;;;17.80;95.00;101475.91;4933879;29;20404;-66
2023/05/22 06:31:48;;;;;;;50.05;24.08;;;17.40;99.90;;;17.93;94.60;101480.91;4937486;29;20055;-66
2023/05/22 06:34:21;;;;;;;52.65;24.42;;;17.50;99.90;;;17.93;93.57;101478.25;4941302;29;20048;-66
2023/05/22 06:36:51;;;;;;;47.88;23.10;;;17.60;99.90;;;17.80;93.63;101486.63;4940655;29;20513;-66
2023/05/22 06:39:23;;;;;;;50.65;22.42;;;17.40;99.90;;;17.87;93.17;101489.09;4939414;29;20052;-66
2023/05/22 06:42:08;;;;;;;45.90;23.40;;;17.50;99.90;;;17.73;93.57;101495.72;4941834;29;20151;-66
2023/05/22 06:45:09;;;;;;;57.30;23.20;;;17.40;99.90;;;17.65;94.82;101497.69;4899319;29;20060;-66
2023/05/22 06:47:55;;;;;;;42.00;21.60;;;17.30;99.90;;;17.92;94.01;101500.56;4941453;29;20498;-66
2023/05/22 06:50:34;;;;;;;45.67;23.77;;;17.50;99.90;;;17.57;94.81;101499.66;5122361;27;20353;-68
2023/05/22 06:53:03;;;;;;;45.65;22.73;;;17.20;99.90;;;17.82;94.47;101503.50;5068651;28;20048;-68
2023/05/22 06:55:31;;;;;;;48.85;24.95;;;17.40;99.90;;;17.98;93.42;101500.41;5099900;28;20040;-68
2023/05/22 06:58:10;;;;;;;58.53;25.45;;;17.60;99.90;;;17.90;92.87;101498.88;5099101;28;20090;-68
2023/05/22 07:00:39;;;;;;;39.75;23.75;;;17.50;99.90;;;18.04;92.98;101496.69;5097739;28;20048;-68
2023/05/22 07:03:18;;;;;;;46.75;24.02;;;17.60;99.90;;;18.06;92.71;101494.00;5094359;28;20470;-68
2023/05/22 07:06:17;;;;;;;46.33;24.40;;;17.60;99.90;;;17.90;93.13;101499.72;5095731;28;20052;-68
2023/05/22 07:08:46;;;;;;;46.63;23.83;;;17.60;99.90;;;17.94;92.77;101508.59;5098952;28;20048;-68
2023/05/22 07:11:14;;;;;;;43.55;23.50;;;17.50;99.90;;;18.17;92.74;101499.97;5098745;28;20203;-68
2023/05/22 07:13:43;;;;;;;50.33;23.88;;;17.70;99.90;;;18.23;91.90;101486.44;5098108;28;20051;-68
2023/05/22 07:16:11;;;;;;;52.25;24.52;;;17.90;99.90;;;18.43;91.77;101498.41;5100583;28;20044;-68
2023/05/22 07:18:40;;;;;;;47.47;24.15;;;18.10;99.90;;;18.66;91.25;101500.47;5097143;28;20051;-68
2023/05/22 07:21:09;;;;;;;48.08;25.63;;;18.30;99.90;;;18.88;90.52;101509.66;5076337;28;20402;-68
2023/05/22 07:23:38;;;;;;;44.80;23.17;;;18.50;99.90;;;19.10;89.82;101509.94;5093801;28;20040;-68
2023/05/22 07:26:08;;;;;;;46.00;23.17;;;18.70;99.90;;;19.30;88.20;101505.72;5099806;28;20135;-68
2023/05/22 07:28:42;;;;;;;44.72;22.85;;;18.90;99.90;;;19.41;87.23;101506.34;5081835;28;20052;-68
2023/05/22 07:31:14;;;;;;;36.05;21.65;;;19.10;99.90;;;19.57;86.28;101495.97;5097409;28;20506;-69
2023/05/22 07:33:45;;;;;;;42.70;22.60;;;19.20;99.90;;;19.67;86.01;101484.03;5116809;28;20048;-69
2023/05/22 07:36:14;;;;;;;43.83;22.88;;;19.40;99.90;;;19.97;85.39;101495.59;5130410;27;20051;-68
2023/05/22 07:38:44;;;;;;;40.05;22.75;;;19.60;99.90;;;20.18;84.34;101502.94;5093303;28;20053;-68
2023/05/22 07:41:12;;;;;;;42.30;22.33;;;19.80;99.90;;;20.33;83.40;101495.25;5116221;28;20079;-69
2023/05/22 07:43:41;;;;;;;45.08;21.83;;;20.00;99.90;;;20.51;82.78;101489.25;5080922;28;20044;-69
2023/05/22 07:46:11;;;;;;;;;;;20.20;99.90;;;20.66;81.77;101501.25;5098205;28;20047;-69
2023/05/22 07:48:50;;;;;;;44.55;20.73;;;20.40;99.90;;;20.87;80.77;101518.44;5075516;28;20369;-69
2023/05/22 07:51:19;;;;;;;37.08;20.75;;;20.50;99.90;;;20.57;80.20;101529.38;5093359;28;20059;-69
2023/05/22 07:53:52;;;;;;;36.95;20.23;;;20.30;99.90;;;20.57;81.09;101524.00;5098101;28;20079;-69
2023/05/22 07:56:20;;;;;;;38.00;19.60;;;20.20;99.90;;;20.46;80.71;101534.22;5099436;28;20093;-69
2023/05/22 07:58:50;;;;;;;39.20;20.05;;;20.10;99.90;;;20.73;80.90;101526.13;5081520;28;20082;-69
2023/05/22 08:01:21;;;;;;;36.67;19.85;;;20.40;99.90;;;20.78;80.24;101534.91;5103413;28;20086;-68
2023/05/22 08:03:49;;;;;;;46.83;24.23;;;20.40;99.90;;;20.76;79.87;101515.25;5086678;28;20131;-69
2023/05/22 08:06:17;;;;;;;49.50;23.80;;;20.50;99.90;;;20.59;80.53;101519.44;5083678;28;20508;-69
2023/05/22 08:08:46;;;;;;;44.25;21.98;;;20.30;99.90;;;20.61;80.75;101528.31;5079107;28;20052;-69
2023/05/22 08:11:16;;;;;;;45.15;21.55;;;20.30;99.90;;;20.52;80.18;101520.56;5079967;28;20094;-68
2023/05/22 08:13:44;;;;;;;39.33;21.27;;;20.20;99.90;;;20.56;80.49;101529.41;5086240;28;20048;-69
2023/05/22 08:16:12;;;;;;;46.92;21.00;;;20.20;99.90;;;20.55;81.38;101528.53;5084205;28;20037;-68
2023/05/22 08:18:41;;;;;;;35.30;20.48;;;20.20;99.90;;;20.53;81.26;101529.53;5101071;28;20036;-69
2023/05/22 08:21:09;;;;;;;46.67;22.13;;;20.20;99.90;;;20.84;81.08;101523.94;5084972;28;20064;-69
2023/05/22 08:23:38;;;;;;;41.20;21.20;;;20.50;99.90;;;20.94;80.56;101528.06;5084488;28;20071;-69
2023/05/22 08:26:08;;;;;;;42.40;20.38;;;20.60;99.90;;;21.08;80.11;101517.69;5085793;28;20047;-69
2023/05/22 08:28:40;;;;;;;41.27;21.00;;;20.70;99.90;;;21.31;79.17;101525.78;5083584;28;20048;-69
2023/05/22 08:31:09;;;;;;;40.45;20.42;;;21.00;99.90;;;21.48;78.14;101508.06;5079339;28;20775;-69
2023/05/22 08:33:37;;;;;;;39.45;20.20;;;21.10;99.90;;;21.71;77.77;101501.75;5086112;28;20111;-69
2023/05/22 08:36:06;;;;;;;41.95;20.10;;;21.40;99.90;;;21.90;76.67;101500.09;5083454;28;20106;-69
2023/05/22 08:38:35;;;;;;;39.35;19.02;;;21.60;99.90;;;21.89;75.84;101505.56;5085197;28;20047;-69
2023/05/22 08:41:05;;;;;;;35.75;19.98;;;21.60;99.90;;;21.77;74.36;101493.41;5084386;28;20052;-69
2023/05/22 08:43:34;;;;;;;36.60;20.52;;;21.60;99.90;;;21.77;75.25;101498.81;5084129;28;20416;-69
2023/05/22 08:46:07;;;;;;;35.05;20.45;;;21.50;99.90;;;21.90;74.13;101500.09;5085724;28;20047;-69
2023/05/22 08:48:37;;;;;;;37.38;20.83;;;21.70;99.90;;;22.01;75.40;101503.22;5078341;28;20045;-69
2023/05/22 08:51:07;;;;;;;36.20;20.10;;;21.80;99.90;;;22.01;74.79;101473.56;5085955;28;20090;-69
2023/05/22 08:53:37;;;;;;;36.75;19.77;;;21.90;99.90;;;22.37;74.69;101500.78;5083452;28;20294;-69
2023/05/22 08:56:07;;;;;;;38.17;19.15;;;22.10;99.90;;;22.43;74.40;101505.94;5083448;28;20056;-69
2023/05/22 08:58:37;;;;;;;38.78;21.88;;;22.20;99.90;;;22.41;73.34;101492.50;5084657;28;20140;-69
2023/05/22 09:01:08;;;;;;;37.65;20.50;;;22.20;99.90;;;22.35;72.89;101500.88;5083301;28;20048;-67
2023/05/22 09:03:37;;;;;;;32.22;19.17;;;22.10;99.90;;;22.42;73.22;101499.66;5085996;28;20109;-67
2023/05/22 09:06:09;;;;;;;34.42;19.42;;;22.10;99.90;;;22.46;74.07;101489.59;5077286;28;20060;-66
2023/05/22 09:08:38;;;;;;;53.00;21.38;;;22.20;99.90;;;22.74;73.37;101498.28;5085134;28;20044;-67
2023/05/22 09:11:07;;;;;;;34.20;19.83;;;22.40;99.90;;;22.82;71.28;101508.72;5083312;28;20048;-67
2023/05/22 09:13:35;;;;;;;39.78;20.95;;;22.50;99.90;;;22.80;72.23;101508.78;5082904;28;20100;-66
2023/05/22 09:16:12;;;;;;;33.50;19.63;;;22.60;99.90;;;22.83;72.14;101505.06;5084297;28;20152;-67
2023/05/22 09:18:41;;;;;;;31.27;19.10;;;22.50;99.90;;;22.89;71.04;101518.28;5082241;28;20375;-67
2023/05/22 09:21:12;;;;;;;33.00;19.13;;;22.60;99.90;;;22.97;72.48;101513.44;5078502;28;20417;-67
2023/05/22 09:24:00;;;;;;;35.63;19.02;;;22.70;99.90;;;22.89;71.73;101515.59;5083095;28;20505;-67
2023/05/22 09:26:29;;;;;;;34.50;19.30;;;22.70;99.90;;;22.95;71.32;101512.63;5060621;28;20061;-67
2023/05/22 09:29:00;;;;;;;37.15;19.67;;;22.60;99.90;;;23.03;70.68;101518.56;5085164;28;20083;-67
2023/05/22 09:31:30;;;;;;;36.05;18.98;;;22.70;99.90;;;22.96;70.50;101517.06;5082863;28;20055;-67
2023/05/22 09:33:58;;;;;;;;;;;22.70;99.90;;;22.82;70.32;101517.69;5084215;28;20075;-67
2023/05/22 09:36:33;;;;;;;36.70;18.83;;;22.60;99.90;;;22.38;71.16;101518.72;5083720;28;19920;-67
2023/05/22 09:39:03;;;;;;;32.80;18.23;;;22.30;99.90;;;22.55;71.24;101521.56;5082187;28;20045;-67
2023/05/22 09:41:39;;;;;;;39.97;17.90;;;22.20;99.90;;;22.18;71.33;101518.69;5081365;28;20056;-67
2023/05/22 09:44:14;;;;;;;39.67;17.05;;;22.00;99.90;;;22.15;72.23;101510.72;5080178;28;20037;-67
2023/05/22 09:46:46;;;;;;;32.58;16.40;;;21.90;99.90;;;22.03;71.80;101517.50;5082409;28;20130;-67
2023/05/22 09:49:16;;;;;;;38.80;16.63;;;21.80;99.90;;;21.95;71.77;101516.06;5084899;28;20058;-67
2023/05/22 09:51:47;;;;;;;40.72;18.88;;;21.70;99.90;;;21.72;72.49;101490.00;5077654;28;20049;-66
2023/05/22 09:54:20;;;;;;;37.67;19.17;;;21.60;99.90;;;21.68;72.46;101507.22;5084353;28;20085;-67
2023/05/22 09:56:50;;;;;;;32.70;18.48;;;21.50;99.90;;;21.57;73.73;101509.47;5082947;28;20036;-67
2023/05/22 09:59:22;;;;;;;45.25;19.42;;;21.40;99.90;;;21.34;74.06;101510.38;5082665;28;20074;-66
2023/05/22 10:01:53;;;;;;;36.35;18.35;;;21.10;99.90;;;21.05;74.43;101513.31;5084546;28;20059;-66
2023/05/22 10:04:23;;;;;;;37.60;19.42;;;20.90;99.90;;;20.97;75.85;101519.84;5085131;28;20036;-69
2023/05/22 10:06:54;;;;;;;39.55;17.92;;;20.70;99.90;;;20.91;75.85;101509.31;5081656;28;20044;-69
2023/05/22 10:09:29;;;;;;;43.58;18.35;;;20.60;99.90;;;20.93;76.16;101515.53;5084026;28;20048;-69
2023/05/22 10:12:03;;;;;;;44.13;18.98;;;20.70;99.90;;;20.98;75.20;101518.94;5099167;28;20099;-69
2023/05/22 10:14:33;;;;;;;37.60;19.40;;;20.70;99.90;;;20.86;76.05;101516.69;5081012;28;20063;-69
2023/05/22 10:17:05;;;;;;;38.55;19.55;;;20.60;99.90;;;20.88;76.60;101515.72;5077500;28;20032;-69